Paseo Palma Real, Puerto Rico
Current Conditions -  °F | °C
As of 8:56 PM on Wednesday 26 Nov 2014 (Local Time) from TJSJ Reporting Station
Scattered Clouds Scattered Clouds  
Wind Chill: 78°   Ceiling: Unl
Heat Index: 81°   Visibility: 10mi
Dew Point: 74°   Wind: 3mph
Humidity: 87%   Direction: 120°ESE
Pressure: 30.03"   Gusts: NA
Location:  18.2339°N, 65.9218°W
Report Text: TJSJ 270056Z 12003KT 10SM FEW026 SCT060 26/23 A3003 RMK AO2 SLP167 T02560233
Loading
Personal Weather Stations






























Interactive Weather Map New forecast layout! Learn more

10-Day Weather Forecast

Advertisements
Track Severe Weather on mobile